This is the latest recevied weather packets stored in our database for station/object KO6MEX-13. If no packets are shown the sender has not sent any weather packets the latest 10 day(s).
| Time | Temp. | Humidity | Pressure | Rain* | Wind** | Luminosity | Snow |
|---|---|---|---|---|---|---|---|
| 1777496901 | 23.89° C | 45% | 1018.9 hPa | 0 mm | - | 666 W/m² | - |
| 1777496598 | 23.33° C | 46% | 1019.1 hPa | 0 mm | - | 667 W/m² | - |
| 1777496295 | 23.89° C | 44% | 1019.2 hPa | 0 mm | - | 671 W/m² | - |
| 1777495990 | 23.33° C | 44% | 1019.1 hPa | 0 mm | - | 675 W/m² | - |
| 1777495687 | 22.78° C | 46% | 1019 hPa | 0 mm | - | 668 W/m² | - |
| 1777495382 | 22.22° C | 49% | 1018.8 hPa | 0 mm | - | 672 W/m² | - |
| 1777495079 | 21.67° C | 51% | 1019.1 hPa | 0 mm | - | 662 W/m² | - |
| 1777494777 | 21.67° C | 50% | 1018.9 hPa | 0 mm | - | 670 W/m² | - |
| 1777494474 | 21.67° C | 51% | 1019 hPa | 0 mm | - | 681 W/m² | - |
| 1777494170 | 21.11° C | 52% | 1019.3 hPa | 0 mm | - | 675 W/m² | - |
| 1777493867 | 21.11° C | 53% | 1019.2 hPa | 0 mm | - | 644 W/m² | - |
| 1777493565 | 21.11° C | 53% | 1019.2 hPa | 0 mm | - | 656 W/m² | - |
| 1777493263 | 21.11° C | 54% | 1019.5 hPa | 0 mm | - | 696 W/m² | - |
| 1777492959 | 21.67° C | 52% | 1019.3 hPa | 0 mm | - | 696 W/m² | - |
| 1777492657 | 21.67° C | 52% | 1019.4 hPa | 0 mm | - | 696 W/m² | - |
| 1777492356 | 21.11° C | 53% | 1019.3 hPa | 0 mm | - | 691 W/m² | - |
| 1777492054 | 21.11° C | 53% | 1019.4 hPa | 0 mm | - | 703 W/m² | - |
| 1777491750 | 20.56° C | 54% | 1019.5 hPa | 0 mm | - | 702 W/m² | - |
| 1777491447 | 21.11° C | 54% | 1019.6 hPa | 0 mm | - | 703 W/m² | - |
| 1777491145 | 21.11° C | 52% | 1019.7 hPa | 0 mm | - | 717 W/m² | - |
| 1777490840 | 21.67° C | 53% | 1019.7 hPa | 0 mm | - | 714 W/m² | - |
| 1777490537 | 21.67° C | 52% | 1019.8 hPa | 0 mm | - | 718 W/m² | - |
| 1777490233 | 21.67° C | 52% | 1019.9 hPa | 0 mm | - | 716 W/m² | - |
| 1777489931 | 21.67° C | 53% | 1019.9 hPa | 0 mm | - | 716 W/m² | - |
| 1777489628 | 21.11° C | 55% | 1020 hPa | 0 mm | - | 728 W/m² | - |
* Rain latest hour (hover to see other rain measurements)
** Current wind speed in m/s (hover to see current wind gust speed)